Delta Virtual Airport Information Service

Mexico City International Airport

ICAO: MMMX Country: Mexico
Latitude: 19.4363 Longitude: -99.072
Latest Arrival : AMX145 (MMPR-MMMX) Latest Departure : AMX479 (MMMX-MMUN)


WX CaptureLIVE
Data provided by noaa.gov | Fetched at 13:34:43

METAR : MMMX 281745Z 09003KT 7SM FEW025 22/09 A3032 NOSIG RMK SLP086 57006 913 8/100 HZY

TAF : MMMX 281712Z 2818/2924 06008KT 6SM HZ SCT025 TX24/2822Z TN10/2912Z BECMG 2821/2822 03015KT BKN025CB BKN080 TEMPO 2823/2903 6SM TSRA FM290400 03005KT P6SM SCT025 BKN080 BECMG 2907/2908 00000KT FM291000 00000KT 5SM HZ BKN020 BKN080 TEMPO 2911/2915 2SM BR HZ OVC015 FM291600 00000KT 5SM HZ SCT020 SCT080 FM292100 03012KT 6SM HZ BKN025CB BKN080 PROB40 2922/2924 5SM TSRA


Runway Data for MMMX
Data provided by openaviationdata.com

Runway ID Mag Var Hdg Length Elevation Surface ILS Freq ILS Id ILS Slope
05L 7 52° 12966 ft 7314 ft Asphalt -- -- --
05R 7 52° 12795 ft 7314 ft Asphalt 109.1 IMWX 3
23L 7 232° 12795 ft 7314 ft Asphalt 109.7 IMEX 3
23R 7 232° 12966 ft 7314 ft Asphalt -- -- --

Mexico City International Airport, Mexico
Use only for reference purposes



Not for navigational purposes.